Time;durP1;ratioP1;P1;durP2;ratioP2;P2;SDS_P1;SDS_P2;PMS_P1;PMS_P2;Temp;Humidity;BMP_temperature;BMP_pressure;BME280_temperature;BME280_humidity;BME280_pressure;Samples;Min_cycle;Max_cycle;Signal;HPM_P1;HPM_P2
2023/04/08 00:00:12;;;;;;;;;;;;;;;;;;4994394;28;20079;-80
2023/04/08 00:02:38;;;;;;;;;;;;;;;;;;4993724;28;20004;-80
2023/04/08 00:05:04;;;;;;;;;;;;;;;;;;4994664;28;20394;-80
2023/04/08 00:07:29;;;;;;;;;;;;;;;;;;4994323;28;19920;-80
2023/04/08 00:09:55;;;;;;;;;;;;;;;;;;4993762;28;20312;-80
2023/04/08 00:12:20;;;;;;;;;;;;;;;;;;4993222;28;20075;-80
2023/04/08 00:14:46;;;;;;;;;;;;;;;;;;4994297;28;19914;-80
2023/04/08 00:17:11;;;;;;;;;;;;;;;;;;4994246;28;19913;-80
2023/04/08 00:19:36;;;;;;;;;;;;;;;;;;4989596;28;19940;-81
2023/04/08 00:22:02;;;;;;;;;;;;;;;;;;4995232;28;20011;-80
2023/04/08 00:24:27;;;;;;;;;;;;;;;;;;4976540;28;19913;-80
2023/04/08 00:26:52;;;;;;;;;;;;;;;;;;4996339;28;19909;-80
2023/04/08 00:29:18;;;;;;;;;;;;;;;;;;4993422;28;20293;-80
2023/04/08 00:31:43;;;;;;;;;;;;;;;;;;4993662;28;19916;-80
2023/04/08 00:34:09;;;;;;;;;;;;;;;;;;4994351;28;19921;-80
2023/04/08 00:36:35;;;;;;;;;;;;;;;;;;5001127;28;19921;-80
2023/04/08 00:39:00;;;;;;;;;;;;;;;;;;5020555;28;19917;-81
2023/04/08 00:41:26;;;;;;;;;;;;;;;;;;4993464;28;19909;-81
2023/04/08 00:43:51;;;;;;;;;;;;;;;;;;4998314;28;19953;-80
2023/04/08 00:46:17;;;;;;;;;;;;;;;;;;5002407;28;20390;-81
2023/04/08 00:48:42;;;;;;;;;;;;;;;;;;5025340;28;19914;-81
2023/04/08 00:51:07;;;;;;;;;;;;;;;;;;4995220;28;20000;-80
2023/04/08 00:53:33;;;;;;;;;;;;;;;;;;5026052;28;20262;-80
2023/04/08 00:56:00;;;;;;;;;;;;;;;;;;4996765;28;19913;-81
2023/04/08 00:58:25;;;;;;;;;;;;;;;;;;5007740;28;19914;-81
2023/04/08 01:00:51;;;;;;;;;;;;;;;;;;5002689;28;19972;-81
2023/04/08 01:03:17;;;;;;;;;;;;;;;;;;4993144;28;19919;-81
2023/04/08 01:05:42;;;;;;;;;;;;;;;;;;4991862;28;19909;-81
2023/04/08 01:08:08;;;;;;;;;;;;;;;;;;4993717;28;20385;-81
2023/04/08 01:10:33;;;;;;;;;;;;;;;;;;4993624;28;19913;-81
2023/04/08 01:12:59;;;;;;;;;;;;;;;;;;5024700;28;19920;-81
2023/04/08 01:15:24;;;;;;;;;;;;;;;;;;5020424;28;19913;-81
2023/04/08 01:17:49;;;;;;;;;;;;;;;;;;5017357;28;19928;-80
2023/04/08 01:20:15;;;;;;;;;;;;;;;;;;4991009;28;19909;-81
2023/04/08 01:22:41;;;;;;;;;;;;;;;;;;5007730;28;19913;-81
2023/04/08 01:25:06;;;;;;;;;;;;;;;;;;4992583;28;19910;-81
2023/04/08 01:27:32;;;;;;;;;;;;;;;;;;4991896;28;20332;-81
2023/04/08 01:29:59;;;;;;;;;;;;;;;;;;4992389;28;20004;-81
2023/04/08 01:32:24;;;;;;;;;;;;;;;;;;4991530;28;19960;-81
2023/04/08 01:34:50;;;;;;;;;;;;;;;;;;4990951;28;19941;-81
2023/04/08 01:37:15;;;;;;;;;;;;;;;;;;4990767;28;20403;-81
2023/04/08 01:39:40;;;;;;;;;;;;;;;;;;4993001;28;20400;-81
2023/04/08 01:42:06;;;;;;;;;;;;;;;;;;4991917;28;19913;-81
2023/04/08 01:44:32;;;;;;;;;;;;;;;;;;4975413;28;19910;-80
2023/04/08 01:46:57;;;;;;;;;;;;;;;;;;4990750;28;19988;-81
2023/04/08 01:49:22;;;;;;;;;;;;;;;;;;4993467;28;20414;-80
2023/04/08 01:51:48;;;;;;;;;;;;;;;;;;4992451;28;19929;-80
2023/04/08 01:54:13;;;;;;;;;;;;;;;;;;4992995;28;19918;-80
2023/04/08 01:56:40;;;;;;;;;;;;;;;;;;4984491;28;19921;-81
2023/04/08 01:59:05;;;;;;;;;;;;;;;;;;4990820;28;19933;-81
2023/04/08 02:01:30;;;;;;;;;;;;;;;;;;4993761;28;19917;-80
2023/04/08 02:03:56;;;;;;;;;;;;;;;;;;4996112;28;19931;-80
2023/04/08 02:06:22;;;;;;;;;;;;;;;;;;4992970;28;19944;-80
2023/04/08 02:08:47;;;;;;;;;;;;;;;;;;4995119;28;19945;-81
2023/04/08 02:11:13;;;;;;;;;;;;;;;;;;4993511;28;20004;-81
2023/04/08 02:13:38;;;;;;;;;;;;;;;;;;4995679;28;19909;-81
2023/04/08 02:16:03;;;;;;;;;;;;;;;;;;4993937;28;19917;-80
2023/04/08 02:18:29;;;;;;;;;;;;;;;;;;4997550;28;19913;-80
2023/04/08 02:20:55;;;;;;;;;;;;;;;;;;4994606;28;19914;-80
2023/04/08 02:23:20;;;;;;;;;;;;;;;;;;4990627;28;19956;-80
2023/04/08 02:25:45;;;;;;;;;;;;;;;;;;4992261;28;19913;-81
2023/04/08 02:28:11;;;;;;;;;;;;;;;;;;4990649;28;19916;-81
2023/04/08 02:30:36;;;;;;;;;;;;;;;;;;5023350;28;20020;-81
2023/04/08 02:33:01;;;;;;;;;;;;;;;;;;5022934;28;19910;-80
2023/04/08 02:35:26;;;;;;;;;;;;;;;;;;4991907;28;19928;-81
2023/04/08 02:37:52;;;;;;;;;;;;;;;;;;4990514;28;19909;-81
2023/04/08 02:40:17;;;;;;;;;;;;;;;;;;5022723;28;20372;-81
2023/04/08 02:42:42;;;;;;;;;;;;;;;;;;4991511;28;19916;-81
2023/04/08 02:45:08;;;;;;;;;;;;;;;;;;4995068;28;19953;-81
2023/04/08 02:47:33;;;;;;;;;;;;;;;;;;4995693;28;19910;-81
2023/04/08 02:49:59;;;;;;;;;;;;;;;;;;5022900;28;20016;-81
2023/04/08 02:52:24;;;;;;;;;;;;;;;;;;4990658;28;19996;-81
2023/04/08 02:54:49;;;;;;;;;;;;;;;;;;5024578;28;19924;-81
2023/04/08 02:57:16;;;;;;;;;;;;;;;;;;4996714;28;19924;-81
2023/04/08 02:59:41;;;;;;;;;;;;;;;;;;5022626;28;19914;-81
2023/04/08 03:02:06;;;;;;;;;;;;;;;;;;4996154;28;19933;-81
2023/04/08 03:04:32;;;;;;;;;;;;;;;;;;5027387;28;19913;-81
2023/04/08 03:06:57;;;;;;;;;;;;;;;;;;4997229;28;19917;-81
2023/04/08 03:09:22;;;;;;;;;;;;;;;;;;4996143;28;19913;-81
2023/04/08 03:11:51;;;;;;;;;;;;;;;;;;4995579;28;20242;-81
2023/04/08 03:14:17;;;;;;;;;;;;;;;;;;4991049;28;19936;-81
2023/04/08 03:16:42;;;;;;;;;;;;;;;;;;4995094;28;19913;-81
2023/04/08 03:19:07;;;;;;;;;;;;;;;;;;5020510;28;19918;-79
2023/04/08 03:21:33;;;;;;;;;;;;;;;;;;4997100;28;19909;-79
2023/04/08 03:23:58;;;;;;;;;;;;;;;;;;4995244;28;20000;-79
2023/04/08 03:26:25;;;;;;;;;;;;;;;;;;4996486;28;19955;-81
2023/04/08 03:28:51;;;;;;;;;;;;;;;;;;4995296;28;19913;-81
2023/04/08 03:31:16;;;;;;;;;;;;;;;;;;4995868;28;20387;-81
2023/04/08 03:33:41;;;;;;;;;;;;;;;;;;4993808;28;19961;-80
2023/04/08 03:36:07;;;;;;;;;;;;;;;;;;4996040;28;20419;-79
2023/04/08 03:38:32;;;;;;;;;;;;;;;;;;5006091;28;19925;-79
2023/04/08 03:40:57;;;;;;;;;;;;;;;;;;4998229;28;20436;-81
2023/04/08 03:43:24;;;;;;;;;;;;;;;;;;5000781;28;19913;-80
2023/04/08 03:45:49;;;;;;;;;;;;;;;;;;4999473;28;19945;-80
2023/04/08 03:48:15;;;;;;;;;;;;;;;;;;4994690;28;20031;-81
2023/04/08 03:50:40;;;;;;;;;;;;;;;;;;4994793;28;19909;-80
2023/04/08 03:53:05;;;;;;;;;;;;;;;;;;5026139;28;19937;-80
2023/04/08 03:55:31;;;;;;;;;;;;;;;;;;4993555;28;19924;-81
2023/04/08 03:57:56;;;;;;;;;;;;;;;;;;5003653;28;20304;-82
2023/04/08 04:00:21;;;;;;;;;;;;;;;;;;4998640;28;19928;-80
2023/04/08 04:02:47;;;;;;;;;;;;;;;;;;5003134;28;19920;-80
2023/04/08 04:05:12;;;;;;;;;;;;;;;;;;4997675;28;19916;-80
2023/04/08 04:07:37;;;;;;;;;;;;;;;;;;5003957;28;19972;-81
2023/04/08 04:10:03;;;;;;;;;;;;;;;;;;4998800;28;19909;-81
2023/04/08 04:12:28;;;;;;;;;;;;;;;;;;5003378;28;19913;-79
2023/04/08 04:14:54;;;;;;;;;;;;;;;;;;4999107;28;19910;-80
2023/04/08 04:17:19;;;;;;;;;;;;;;;;;;5000702;28;19921;-79
2023/04/08 04:19:44;;;;;;;;;;;;;;;;;;4998246;28;20076;-79
2023/04/08 04:22:10;;;;;;;;;;;;;;;;;;4998767;28;19917;-79
2023/04/08 04:24:35;;;;;;;;;;;;;;;;;;4992049;28;20412;-79
2023/04/08 04:27:01;;;;;;;;;;;;;;;;;;4992814;28;19913;-79
2023/04/08 04:29:26;;;;;;;;;;;;;;;;;;4993736;28;19909;-79
2023/04/08 04:31:51;;;;;;;;;;;;;;;;;;4994966;28;20470;-80
2023/04/08 04:34:17;;;;;;;;;;;;;;;;;;4976743;28;19933;-79
2023/04/08 04:36:42;;;;;;;;;;;;;;;;;;4994118;28;19970;-80
2023/04/08 04:39:07;;;;;;;;;;;;;;;;;;4993804;28;19909;-79
2023/04/08 04:41:37;;;;;;;;;;;;;;;;;;4991898;28;19940;-80
2023/04/08 04:44:02;;;;;;;;;;;;;;;;;;4994110;28;19910;-79
2023/04/08 04:46:28;;;;;;;;;;;;;;;;;;4997942;28;19921;-81
2023/04/08 04:48:53;;;;;;;;;;;;;;;;;;4993055;28;20431;-80
2023/04/08 04:51:18;;;;;;;;;;;;;;;;;;4989080;28;19922;-80
2023/04/08 04:53:44;;;;;;;;;;;;;;;;;;4993472;28;19917;-80
2023/04/08 04:56:10;;;;;;;;;;;;;;;;;;4994044;28;19925;-80
2023/04/08 04:58:35;;;;;;;;;;;;;;;;;;4996769;28;20001;-80
2023/04/08 05:01:00;;;;;;;;;;;;;;;;;;4975981;28;19920;-79
2023/04/08 05:03:26;;;;;;;;;;;;;;;;;;4993078;28;19909;-80
2023/04/08 05:05:51;;;;;;;;;;;;;;;;;;4992644;28;19976;-80
2023/04/08 05:08:17;;;;;;;;;;;;;;;;;;4993137;28;19941;-80
2023/04/08 05:10:42;;;;;;;;;;;;;;;;;;4993242;28;20389;-80
2023/04/08 05:13:07;;;;;;;;;;;;;;;;;;4992304;28;19925;-81
2023/04/08 05:15:33;;;;;;;;;;;;;;;;;;5001847;28;20446;-80
2023/04/08 05:17:58;;;;;;;;;;;;;;;;;;4999578;28;19925;-81
2023/04/08 05:20:23;;;;;;;;;;;;;;;;;;5003836;28;19956;-81
2023/04/08 05:22:48;;;;;;;;;;;;;;;;;;5002231;28;19913;-82
2023/04/08 05:25:14;;;;;;;;;;;;;;;;;;5003770;28;19913;-81
2023/04/08 05:27:39;;;;;;;;;;;;;;;;;;5026183;28;19920;-78
2023/04/08 05:30:05;;;;;;;;;;;;;;;;;;5024383;28;19937;-81
2023/04/08 05:32:30;;;;;;;;;;;;;;;;;;4993720;28;19932;-79
2023/04/08 05:34:55;;;;;;;;;;;;;;;;;;4990111;28;19964;-78
2023/04/08 05:37:21;;;;;;;;;;;;;;;;;;4991114;28;20373;-79
2023/04/08 05:39:46;;;;;;;;;;;;;;;;;;4992286;28;19913;-80
2023/04/08 05:42:12;;;;;;;;;;;;;;;;;;4991849;28;19913;-83
2023/04/08 05:44:40;;;;;;;;;;;;;;;;;;4994428;28;19956;-82
2023/04/08 05:47:05;;;;;;;;;;;;;;;;;;4993650;28;19917;-81
2023/04/08 05:49:31;;;;;;;;;;;;;;;;;;4993332;28;20389;-82
2023/04/08 05:51:56;;;;;;;;;;;;;;;;;;4996168;28;19983;-83
2023/04/08 05:54:21;;;;;;;;;;;;;;;;;;4989712;28;20341;-84
2023/04/08 05:56:47;;;;;;;;;;;;;;;;;;4993978;28;19913;-84
2023/04/08 05:59:13;;;;;;;;;;;;;;;;;;4994575;28;19921;-81
2023/04/08 06:01:38;;;;;;;;;;;;;;;;;;4988174;28;19910;-83
2023/04/08 06:04:04;;;;;;;;;;;;;;;;;;4998237;28;19918;-85
2023/04/08 06:06:29;;;;;;;;;;;;;;;;;;4993986;28;19955;-85
2023/04/08 06:08:54;;;;;;;;;;;;;;;;;;4995928;28;20004;-82
2023/04/08 06:11:20;;;;;;;;;;;;;;;;;;4996220;28;19909;-84
2023/04/08 06:13:45;;;;;;;;;;;;;;;;;;4998617;28;19920;-84
2023/04/08 06:16:11;;;;;;;;;;;;;;;;;;4992832;28;19956;-83
2023/04/08 06:18:36;;;;;;;;;;;;;;;;;;4992265;28;19972;-83
2023/04/08 06:21:01;;;;;;;;;;;;;;;;;;4995762;28;19913;-83
2023/04/08 06:23:27;;;;;;;;;;;;;;;;;;4994336;28;19913;-84
2023/04/08 06:25:52;;;;;;;;;;;;;;;;;;4996728;28;19921;-86
2023/04/08 06:28:17;;;;;;;;;;;;;;;;;;4993041;28;19940;-87
2023/04/08 06:30:43;;;;;;;;;;;;;;;;;;4999499;28;19910;-84
2023/04/08 06:33:08;;;;;;;;;;;;;;;;;;5001720;28;20353;-82
2023/04/08 06:35:33;;;;;;;;;;;;;;;;;;4996369;28;19921;-82
2023/04/08 06:37:59;;;;;;;;;;;;;;;;;;4997778;28;19917;-80
2023/04/08 06:40:24;;;;;;;;;;;;;;;;;;5003347;28;19909;-80
2023/04/08 06:42:50;;;;;;;;;;;;;;;;;;5003175;28;19925;-84
2023/04/08 06:45:20;;;;;;;;;;;;;;;;;;5030135;28;19910;-84
2023/04/08 06:47:46;;;;;;;;;;;;;;;;;;5009535;28;20051;-86
2023/04/08 06:50:11;;;;;;;;;;;;;;;;;;5003478;28;20347;-84
2023/04/08 06:52:36;;;;;;;;;;;;;;;;;;4998520;28;19913;-82
2023/04/08 06:55:02;;;;;;;;;;;;;;;;;;5003513;28;19989;-83
2023/04/08 06:57:27;;;;;;;;;;;;;;;;;;5003259;28;19960;-81
2023/04/08 06:59:52;;;;;;;;;;;;;;;;;;5003293;28;19964;-79
2023/04/08 07:02:18;;;;;;;;;;;;;;;;;;5002391;28;19918;-80
2023/04/08 07:04:43;;;;;;;;;;;;;;;;;;5000620;28;19910;-81
2023/04/08 07:07:09;;;;;;;;;;;;;;;;;;5002383;28;20020;-80
2023/04/08 07:09:35;;;;;;;;;;;;;;;;;;5004226;28;20365;-81
2023/04/08 07:12:02;;;;;;;;;;;;;;;;;;4990630;28;20360;-80
2023/04/08 07:14:28;;;;;;;;;;;;;;;;;;4995118;28;20365;-82
2023/04/08 07:16:54;;;;;;;;;;;;;;;;;;5006615;28;19928;-78
2023/04/08 07:19:19;;;;;;;;;;;;;;;;;;5007056;28;19917;-85
2023/04/08 07:21:45;;;;;;;;;;;;;;;;;;5003661;28;19914;-82
2023/04/08 07:24:10;;;;;;;;;;;;;;;;;;5001821;28;19980;-80
2023/04/08 07:26:35;;;;;;;;;;;;;;;;;;4998086;28;19918;-81
2023/04/08 07:29:01;;;;;;;;;;;;;;;;;;4989232;28;19910;-80
2023/04/08 07:31:26;;;;;;;;;;;;;;;;;;4991363;28;19979;-79
2023/04/08 07:33:51;;;;;;;;;;;;;;;;;;4997281;28;19925;-82
2023/04/08 07:36:19;;;;;;;;;;;;;;;;;;5027652;28;19926;-82
2023/04/08 07:38:45;;;;;;;;;;;;;;;;;;4997761;28;19920;-82
2023/04/08 07:41:10;;;;;;;;;;;;;;;;;;4996374;28;19914;-83
2023/04/08 07:43:36;;;;;;;;;;;;;;;;;;5012342;28;19948;-82
2023/04/08 07:46:02;;;;;;;;;;;;;;;;;;4997560;28;19913;-83
2023/04/08 07:48:27;;;;;;;;;;;;;;;;;;4991363;28;19917;-82
2023/04/08 07:50:52;;;;;;;;;;;;;;;;;;5005648;28;20000;-84
2023/04/08 07:53:18;;;;;;;;;;;;;;;;;;5008646;28;19917;-83
2023/04/08 07:55:44;;;;;;;;;;;;;;;;;;5004082;28;19917;-84
2023/04/08 07:58:09;;;;;;;;;;;;;;;;;;5008040;28;19921;-84
2023/04/08 08:00:35;;;;;;;;;;;;;;;;;;4996676;28;20300;-84
2023/04/08 08:03:00;;;;;;;;;;;;;;;;;;4996384;28;19910;-82
2023/04/08 08:05:25;;;;;;;;;;;;;;;;;;4992980;28;19920;-82
2023/04/08 08:07:51;;;;;;;;;;;;;;;;;;5017875;28;20017;-83
2023/04/08 08:10:16;;;;;;;;;;;;;;;;;;4997452;28;19920;-82
2023/04/08 08:12:41;;;;;;;;;;;;;;;;;;5003658;28;19944;-81
2023/04/08 08:15:07;;;;;;;;;;;;;;;;;;4996492;28;19913;-82
2023/04/08 08:17:32;;;;;;;;;;;;;;;;;;4996022;28;19925;-82
2023/04/08 08:19:58;;;;;;;;;;;;;;;;;;4995217;28;20009;-84
2023/04/08 08:22:25;;;;;;;;;;;;;;;;;;5012907;28;19964;-81
2023/04/08 08:24:51;;;;;;;;;;;;;;;;;;5028197;28;20420;-81
2023/04/08 08:27:18;;;;;;;;;;;;;;;;;;5033664;28;19909;-82
2023/04/08 08:29:44;;;;;;;;;;;;;;;;;;5027900;28;20392;-81
2023/04/08 08:32:10;;;;;;;;;;;;;;;;;;5043327;28;19913;-82
2023/04/08 08:34:38;;;;;;;;;;;;;;;;;;5028545;28;20373;-79
2023/04/08 08:37:06;;;;;;;;;;;;;;;;;;5023842;28;19922;-81
2023/04/08 08:39:32;;;;;;;;;;;;;;;;;;4994574;28;20292;-80
2023/04/08 08:41:57;;;;;;;;;;;;;;;;;;5011031;28;20429;-80
2023/04/08 08:44:23;;;;;;;;;;;;;;;;;;5014562;28;20404;-81
2023/04/08 08:46:48;;;;;;;;;;;;;;;;;;4987841;28;19949;-81
2023/04/08 08:49:13;;;;;;;;;;;;;;;;;;4997886;28;20356;-80
2023/04/08 08:51:39;;;;;;;;;;;;;;;;;;4998670;28;19921;-80
2023/04/08 08:54:04;;;;;;;;;;;;;;;;;;4998185;28;19917;-80
2023/04/08 08:56:29;;;;;;;;;;;;;;;;;;4996083;28;19924;-82
2023/04/08 08:58:54;;;;;;;;;;;;;;;;;;4981756;28;19914;-82
2023/04/08 09:01:20;;;;;;;;;;;;;;;;;;5019244;28;19923;-83
2023/04/08 09:03:45;;;;;;;;;;;;;;;;;;4990788;28;19913;-82
2023/04/08 09:06:11;;;;;;;;;;;;;;;;;;5021471;28;19909;-84
2023/04/08 09:08:36;;;;;;;;;;;;;;;;;;4995671;28;19953;-84
2023/04/08 09:11:01;;;;;;;;;;;;;;;;;;4995507;28;19917;-85
2023/04/08 09:13:27;;;;;;;;;;;;;;;;;;4989924;28;19914;-81
2023/04/08 09:15:52;;;;;;;;;;;;;;;;;;4993934;28;20011;-83
2023/04/08 09:18:17;;;;;;;;;;;;;;;;;;4992860;28;19924;-83
2023/04/08 09:20:43;;;;;;;;;;;;;;;;;;5026420;28;19914;-84
2023/04/08 09:23:08;;;;;;;;;;;;;;;;;;4992599;28;20440;-83
2023/04/08 09:25:34;;;;;;;;;;;;;;;;;;4993764;28;19997;-82
2023/04/08 09:28:00;;;;;;;;;;;;;;;;;;4993224;28;20381;-83
2023/04/08 09:30:26;;;;;;;;;;;;;;;;;;4981339;28;19968;-83
2023/04/08 09:32:51;;;;;;;;;;;;;;;;;;4993445;28;19956;-83
2023/04/08 09:35:17;;;;;;;;;;;;;;;;;;5023802;28;19921;-84
2023/04/08 09:37:42;;;;;;;;;;;;;;;;;;4995526;28;19975;-83
2023/04/08 09:40:07;;;;;;;;;;;;;;;;;;5025090;28;19910;-83
2023/04/08 09:42:33;;;;;;;;;;;;;;;;;;4993151;28;19914;-84
2023/04/08 09:44:58;;;;;;;;;;;;;;;;;;5008093;28;19910;-83
2023/04/08 09:47:23;;;;;;;;;;;;;;;;;;5025233;28;19918;-84
2023/04/08 09:49:48;;;;;;;;;;;;;;;;;;5024326;28;19914;-84
2023/04/08 09:52:14;;;;;;;;;;;;;;;;;;4992788;28;19914;-84
2023/04/08 09:54:39;;;;;;;;;;;;;;;;;;4991918;28;19914;-84
2023/04/08 09:57:05;;;;;;;;;;;;;;;;;;5024963;28;20577;-85
2023/04/08 09:59:33;;;;;;;;;;;;;;;;;;5002985;28;20361;-83
2023/04/08 10:01:58;;;;;;;;;;;;;;;;;;4993464;28;19914;-83
2023/04/08 10:04:24;;;;;;;;;;;;;;;;;;5014825;28;19910;-83
2023/04/08 10:06:50;;;;;;;;;;;;;;;;;;5024958;28;20344;-83
2023/04/08 10:09:15;;;;;;;;;;;;;;;;;;4993402;28;19910;-83
2023/04/08 10:11:41;;;;;;;;;;;;;;;;;;5001055;28;19917;-84
2023/04/08 10:14:06;;;;;;;;;;;;;;;;;;5007849;28;19918;-84
2023/04/08 10:16:32;;;;;;;;;;;;;;;;;;4994639;28;19968;-83
2023/04/08 10:18:57;;;;;;;;;;;;;;;;;;4994766;28;20328;-85
2023/04/08 10:21:22;;;;;;;;;;;;;;;;;;4992105;28;19941;-86
2023/04/08 10:23:48;;;;;;;;;;;;;;;;;;4995034;28;20365;-86
2023/04/08 10:26:13;;;;;;;;;;;;;;;;;;4991910;28;19914;-83
2023/04/08 10:28:39;;;;;;;;;;;;;;;;;;4993193;28;19916;-83
2023/04/08 10:31:05;;;;;;;;;;;;;;;;;;4997379;28;20016;-84
2023/04/08 10:33:30;;;;;;;;;;;;;;;;;;4995165;28;19922;-84
2023/04/08 10:35:56;;;;;;;;;;;;;;;;;;4993182;28;19928;-83
2023/04/08 10:38:21;;;;;;;;;;;;;;;;;;4995524;28;20004;-79
2023/04/08 10:40:46;;;;;;;;;;;;;;;;;;4996093;28;20032;-84
2023/04/08 10:43:12;;;;;;;;;;;;;;;;;;4991903;28;19925;-83
2023/04/08 10:45:37;;;;;;;;;;;;;;;;;;4998498;28;20280;-83
2023/04/08 10:48:02;;;;;;;;;;;;;;;;;;5022960;28;20423;-83
2023/04/08 10:50:28;;;;;;;;;;;;;;;;;;4992227;28;19914;-84
2023/04/08 10:52:53;;;;;;;;;;;;;;;;;;5022915;28;19964;-84
2023/04/08 10:55:18;;;;;;;;;;;;;;;;;;5023748;28;20001;-83
2023/04/08 10:57:44;;;;;;;;;;;;;;;;;;4992837;28;20296;-83
2023/04/08 11:00:09;;;;;;;;;;;;;;;;;;4992833;28;19917;-84
2023/04/08 11:02:35;;;;;;;;;;;;;;;;;;4991919;28;20351;-84
2023/04/08 11:05:00;;;;;;;;;;;;;;;;;;4993366;28;19917;-85
2023/04/08 11:07:26;;;;;;;;;;;;;;;;;;5027539;28;19909;-85
2023/04/08 11:09:51;;;;;;;;;;;;;;;;;;4994955;28;20304;-83
2023/04/08 11:12:32;;;;;;;;;;;;;;;;;;4994430;28;20376;-85
2023/04/08 11:14:58;;;;;;;;;;;;;;;;;;4979242;28;19913;-82
2023/04/08 11:17:23;;;;;;;;;;;;;;;;;;4999414;28;19971;-83
2023/04/08 11:19:49;;;;;;;;;;;;;;;;;;4995385;28;19918;-83
2023/04/08 11:22:14;;;;;;;;;;;;;;;;;;4984469;28;19929;-83
2023/04/08 11:24:40;;;;;;;;;;;;;;;;;;4996366;28;19941;-84
2023/04/08 11:27:05;;;;;;;;;;;;;;;;;;4994635;28;20009;-84
2023/04/08 11:29:31;;;;;;;;;;;;;;;;;;4999972;28;19920;-84
2023/04/08 11:31:56;;;;;;;;;;;;;;;;;;4996103;28;19914;-85
2023/04/08 11:34:22;;;;;;;;;;;;;;;;;;5002451;28;20012;-83
2023/04/08 11:36:48;;;;;;;;;;;;;;;;;;5003632;28;19938;-84
2023/04/08 11:39:13;;;;;;;;;;;;;;;;;;4999258;28;19914;-85
2023/04/08 11:41:39;;;;;;;;;;;;;;;;;;5004985;28;19937;-84
2023/04/08 11:44:05;;;;;;;;;;;;;;;;;;4978011;28;19936;-85
2023/04/08 11:46:31;;;;;;;;;;;;;;;;;;4995360;28;19920;-82
2023/04/08 11:48:56;;;;;;;;;;;;;;;;;;4999493;28;19914;-83
2023/04/08 11:51:21;;;;;;;;;;;;;;;;;;4998139;28;19909;-85
2023/04/08 11:53:48;;;;;;;;;;;;;;;;;;4977438;28;19913;-85
2023/04/08 11:56:13;;;;;;;;;;;;;;;;;;4993401;28;19965;-85
2023/04/08 11:58:38;;;;;;;;;;;;;;;;;;4997266;28;19917;-84
2023/04/08 12:01:04;;;;;;;;;;;;;;;;;;4998015;28;19918;-84
2023/04/08 12:03:30;;;;;;;;;;;;;;;;;;4997998;28;20356;-84
2023/04/08 12:05:56;;;;;;;;;;;;;;;;;;4999303;28;19913;-84
2023/04/08 12:08:21;;;;;;;;;;;;;;;;;;5026197;28;19952;-86
2023/04/08 12:10:46;;;;;;;;;;;;;;;;;;4987104;28;19914;-83
2023/04/08 12:13:13;;;;;;;;;;;;;;;;;;5030856;28;19914;-85
2023/04/08 12:15:39;;;;;;;;;;;;;;;;;;5027125;28;19932;-82
2023/04/08 12:18:05;;;;;;;;;;;;;;;;;;5028667;28;19985;-85
2023/04/08 12:20:30;;;;;;;;;;;;;;;;;;4990771;28;19917;-81
2023/04/08 12:22:55;;;;;;;;;;;;;;;;;;5007197;28;20015;-82
2023/04/08 12:25:21;;;;;;;;;;;;;;;;;;5000401;28;19914;-77
2023/04/08 12:27:46;;;;;;;;;;;;;;;;;;4998128;28;19913;-79
2023/04/08 12:30:11;;;;;;;;;;;;;;;;;;4980810;28;20088;-77
2023/04/08 12:32:37;;;;;;;;;;;;;;;;;;4993566;28;19917;-78
2023/04/08 12:35:02;;;;;;;;;;;;;;;;;;4994748;28;20373;-77
2023/04/08 12:37:27;;;;;;;;;;;;;;;;;;4999894;28;19921;-76
2023/04/08 12:39:53;;;;;;;;;;;;;;;;;;4988391;28;19917;-78
2023/04/08 12:42:19;;;;;;;;;;;;;;;;;;5016271;28;19952;-77
2023/04/08 12:44:44;;;;;;;;;;;;;;;;;;4992491;28;20011;-75
2023/04/08 12:47:09;;;;;;;;;;;;;;;;;;4991690;28;19925;-76
2023/04/08 12:49:35;;;;;;;;;;;;;;;;;;4992135;28;19910;-76
2023/04/08 12:52:00;;;;;;;;;;;;;;;;;;4993210;28;19917;-76
2023/04/08 12:54:25;;;;;;;;;;;;;;;;;;4991531;28;19910;-76
2023/04/08 12:56:51;;;;;;;;;;;;;;;;;;4991299;28;20293;-76
2023/04/08 12:59:16;;;;;;;;;;;;;;;;;;4989805;28;19925;-76
2023/04/08 13:01:41;;;;;;;;;;;;;;;;;;4991953;28;19920;-76
2023/04/08 13:04:07;;;;;;;;;;;;;;;;;;4992888;28;19914;-76
2023/04/08 13:06:32;;;;;;;;;;;;;;;;;;4996001;28;19913;-78
2023/04/08 13:08:57;;;;;;;;;;;;;;;;;;4990037;28;19914;-77
2023/04/08 13:11:23;;;;;;;;;;;;;;;;;;4991446;28;19913;-79
2023/04/08 13:13:48;;;;;;;;;;;;;;;;;;4998552;28;20261;-76
2023/04/08 13:16:14;;;;;;;;;;;;;;;;;;4992676;28;20035;-78
2023/04/08 13:18:40;;;;;;;;;;;;;;;;;;5023957;28;19917;-78
2023/04/08 13:21:05;;;;;;;;;;;;;;;;;;4997846;28;19913;-78
2023/04/08 13:23:30;;;;;;;;;;;;;;;;;;4999095;28;19975;-77
2023/04/08 13:25:56;;;;;;;;;;;;;;;;;;4992517;28;19943;-78
2023/04/08 13:28:21;;;;;;;;;;;;;;;;;;5001315;28;20008;-77
2023/04/08 13:30:46;;;;;;;;;;;;;;;;;;4992256;28;19913;-77
2023/04/08 13:33:12;;;;;;;;;;;;;;;;;;4990999;28;19920;-76
2023/04/08 13:35:37;;;;;;;;;;;;;;;;;;4990312;28;20377;-76
2023/04/08 13:38:02;;;;;;;;;;;;;;;;;;5015695;28;19909;-79
2023/04/08 13:40:28;;;;;;;;;;;;;;;;;;4992567;28;19921;-77
2023/04/08 13:42:54;;;;;;;;;;;;;;;;;;4991323;28;19914;-77
2023/04/08 13:45:20;;;;;;;;;;;;;;;;;;4992291;28;20273;-77
2023/04/08 13:47:45;;;;;;;;;;;;;;;;;;4990672;28;20291;-76
2023/04/08 13:50:10;;;;;;;;;;;;;;;;;;4995766;28;19920;-77
2023/04/08 13:52:36;;;;;;;;;;;;;;;;;;4995538;28;19909;-77
2023/04/08 13:55:01;;;;;;;;;;;;;;;;;;5022524;28;19922;-76
2023/04/08 13:57:26;;;;;;;;;;;;;;;;;;4975042;28;20439;-77
2023/04/08 13:59:52;;;;;;;;;;;;;;;;;;4991773;28;19954;-76
2023/04/08 14:02:17;;;;;;;;;;;;;;;;;;4991861;28;20324;-76
2023/04/08 14:04:44;;;;;;;;;;;;;;;;;;5021993;28;19998;-77
2023/04/08 14:07:09;;;;;;;;;;;;;;;;;;4999262;28;19913;-77
2023/04/08 14:09:35;;;;;;;;;;;;;;;;;;4991602;28;20274;-77
2023/04/08 14:12:01;;;;;;;;;;;;;;;;;;5014566;28;19909;-76
2023/04/08 14:14:26;;;;;;;;;;;;;;;;;;5029707;28;19920;-76
2023/04/08 14:16:52;;;;;;;;;;;;;;;;;;4990276;28;20505;-77
2023/04/08 14:19:17;;;;;;;;;;;;;;;;;;4991878;28;19914;-77
2023/04/08 14:21:42;;;;;;;;;;;;;;;;;;5010188;28;20032;-78
2023/04/08 14:24:08;;;;;;;;;;;;;;;;;;4991616;28;19913;-77
2023/04/08 14:26:34;;;;;;;;;;;;;;;;;;5010259;28;20361;-77
2023/04/08 14:29:00;;;;;;;;;;;;;;;;;;5003192;28;19946;-77
2023/04/08 14:31:25;;;;;;;;;;;;;;;;;;4987076;28;20488;-77
2023/04/08 14:33:54;;;;;;;;;;;;;;;;;;5022598;28;19918;-78
2023/04/08 14:36:20;;;;;;;;;;;;;;;;;;4995629;28;19975;-77
2023/04/08 14:38:45;;;;;;;;;;;;;;;;;;5023477;28;19913;-78
2023/04/08 14:41:11;;;;;;;;;;;;;;;;;;4997950;28;19909;-79
2023/04/08 14:43:36;;;;;;;;;;;;;;;;;;4996690;28;20392;-78
2023/04/08 14:46:02;;;;;;;;;;;;;;;;;;4977482;28;19909;-77
2023/04/08 14:48:29;;;;;;;;;;;;;;;;;;4995175;28;19965;-77
2023/04/08 14:50:54;;;;;;;;;;;;;;;;;;4994718;28;19910;-79
2023/04/08 14:53:20;;;;;;;;;;;;;;;;;;4994341;28;19992;-77
2023/04/08 14:55:45;;;;;;;;;;;;;;;;;;4994691;28;19910;-77
2023/04/08 14:58:10;;;;;;;;;;;;;;;;;;5021471;28;19920;-77
2023/04/08 15:00:36;;;;;;;;;;;;;;;;;;4997248;28;19917;-77
2023/04/08 15:03:02;;;;;;;;;;;;;;;;;;5019833;28;19918;-77
2023/04/08 15:05:27;;;;;;;;;;;;;;;;;;4994818;28;20373;-79
2023/04/08 15:07:52;;;;;;;;;;;;;;;;;;4999063;28;20004;-76
2023/04/08 15:10:18;;;;;;;;;;;;;;;;;;4993170;28;19910;-77
2023/04/08 15:12:43;;;;;;;;;;;;;;;;;;4994537;28;20013;-78
2023/04/08 15:15:08;;;;;;;;;;;;;;;;;;4994718;28;19909;-78
2023/04/08 15:17:34;;;;;;;;;;;;;;;;;;4994572;28;20371;-77
2023/04/08 15:19:59;;;;;;;;;;;;;;;;;;4994397;28;19914;-77
2023/04/08 15:22:25;;;;;;;;;;;;;;;;;;5001706;28;19913;-78
2023/04/08 15:24:51;;;;;;;;;;;;;;;;;;5001450;28;19921;-77
2023/04/08 15:27:16;;;;;;;;;;;;;;;;;;5007788;28;19920;-78
2023/04/08 15:29:41;;;;;;;;;;;;;;;;;;4989574;28;20000;-78
2023/04/08 15:32:07;;;;;;;;;;;;;;;;;;5026827;28;19943;-77
2023/04/08 15:34:32;;;;;;;;;;;;;;;;;;5003372;28;19924;-77
2023/04/08 15:36:58;;;;;;;;;;;;;;;;;;5024412;28;19988;-76
2023/04/08 15:39:23;;;;;;;;;;;;;;;;;;4994097;28;19916;-77
2023/04/08 15:41:48;;;;;;;;;;;;;;;;;;4993885;28;19914;-77
2023/04/08 15:44:13;;;;;;;;;;;;;;;;;;4992762;28;20266;-77
2023/04/08 15:46:39;;;;;;;;;;;;;;;;;;4994093;28;19921;-77
2023/04/08 15:49:05;;;;;;;;;;;;;;;;;;4993959;28;19914;-77
2023/04/08 15:51:31;;;;;;;;;;;;;;;;;;5007462;28;19917;-77
2023/04/08 15:53:57;;;;;;;;;;;;;;;;;;4992801;28;20274;-78
2023/04/08 15:56:22;;;;;;;;;;;;;;;;;;4993023;28;19929;-78
2023/04/08 15:58:47;;;;;;;;;;;;;;;;;;4993400;28;19976;-78
2023/04/08 16:01:14;;;;;;;;;;;;;;;;;;5016512;28;19976;-77
2023/04/08 16:03:39;;;;;;;;;;;;;;;;;;4992465;28;19914;-78
2023/04/08 16:06:05;;;;;;;;;;;;;;;;;;5030047;28;19939;-77
2023/04/08 16:08:32;;;;;;;;;;;;;;;;;;4997097;28;19910;-77
2023/04/08 16:10:57;;;;;;;;;;;;;;;;;;5001885;28;19914;-77
2023/04/08 16:13:23;;;;;;;;;;;;;;;;;;4994366;28;19976;-76
2023/04/08 16:15:48;;;;;;;;;;;;;;;;;;4994516;28;19964;-77
2023/04/08 16:18:13;;;;;;;;;;;;;;;;;;4993207;28;19909;-77
2023/04/08 16:20:39;;;;;;;;;;;;;;;;;;5000268;28;19990;-77
2023/04/08 16:23:04;;;;;;;;;;;;;;;;;;5000682;28;19976;-87
2023/04/08 16:25:30;;;;;;;;;;;;;;;;;;5025409;28;19925;-78
2023/04/08 16:27:55;;;;;;;;;;;;;;;;;;4994048;28;19917;-76
2023/04/08 16:30:20;;;;;;;;;;;;;;;;;;4996248;28;19914;-79
2023/04/08 16:32:45;;;;;;;;;;;;;;;;;;4999554;28;19910;-77